createdAt,value
2023-01-02T00:01:50.226Z,4.77
2023-01-02T00:04:19.684Z,4.43
2023-01-02T00:06:49.544Z,4.10
2023-01-02T00:09:19.134Z,3.73
2023-01-02T00:11:48.939Z,3.70
2023-01-02T00:14:19.425Z,4.97
2023-01-02T00:16:49.162Z,4.17
2023-01-02T00:19:18.983Z,4.53
2023-01-02T00:21:48.712Z,4.23
2023-01-02T00:24:18.443Z,3.37
2023-01-02T00:26:48.176Z,4.00
2023-01-02T00:29:17.678Z,4.67
2023-01-02T00:31:47.472Z,4.30
2023-01-02T00:34:17.318Z,4.20
2023-01-02T00:36:47.056Z,3.73
2023-01-02T00:39:16.669Z,3.93
2023-01-02T00:41:46.429Z,3.90
2023-01-02T00:44:16.220Z,3.30
2023-01-02T00:46:46.016Z,4.53
2023-01-02T00:49:15.533Z,4.43
2023-01-02T00:51:45.442Z,4.07
2023-01-02T00:54:14.956Z,4.43
2023-01-02T00:56:44.684Z,3.80
2023-01-02T00:59:14.308Z,3.97
2023-01-02T01:01:44.293Z,3.97
2023-01-02T01:04:15.047Z,3.77
2023-01-02T01:06:44.781Z,3.95
2023-01-02T01:09:14.282Z,4.13
2023-01-02T01:11:44.026Z,5.13
2023-01-02T01:14:13.504Z,4.33
2023-01-02T01:16:43.347Z,3.90
2023-01-02T01:19:13.462Z,4.60
2023-01-02T01:21:43.359Z,4.13
2023-01-02T01:24:14.291Z,4.17
2023-01-02T01:26:44.029Z,3.72
2023-01-02T01:29:13.511Z,4.47
2023-01-02T01:31:43.307Z,3.60
2023-01-02T01:34:13.989Z,4.10
2023-01-02T01:36:44.148Z,4.03
2023-01-02T01:39:14.257Z,4.50
2023-01-02T01:41:44.017Z,3.00
2023-01-02T01:44:44.984Z,3.53
2023-01-02T01:47:34.269Z,3.83
2023-01-02T01:50:12.888Z,4.03
2023-01-02T01:52:48.241Z,3.53
2023-01-02T01:55:26.841Z,4.08
2023-01-02T01:58:02.494Z,3.73
2023-01-02T02:00:33.264Z,3.67
2023-01-02T02:03:07.268Z,3.77
2023-01-02T02:05:38.936Z,3.80
2023-01-02T02:08:20.783Z,3.70
2023-01-02T02:10:52.303Z,4.20
2023-01-02T02:13:22.704Z,4.17
2023-01-02T02:16:09.027Z,3.90
2023-01-02T02:18:56.817Z,3.80
2023-01-02T02:21:49.377Z,3.85
2023-01-02T02:24:37.131Z,3.90
2023-01-02T02:27:18.569Z,3.55
2023-01-02T02:30:08.004Z,3.67
2023-01-02T02:33:01.952Z,3.10
2023-01-02T02:35:54.485Z,3.43
2023-01-02T02:38:29.895Z,2.77
2023-01-02T02:41:17.785Z,3.63
2023-01-02T02:43:59.316Z,2.90
2023-01-02T02:46:40.845Z,2.93
2023-01-02T02:49:34.624Z,2.60
2023-01-02T02:52:23.600Z,2.73
2023-01-02T02:54:59.240Z,2.70
2023-01-02T02:57:31.057Z,3.00
2023-01-02T03:00:01.150Z,2.90
2023-01-02T03:02:31.068Z,2.67
2023-01-02T03:05:04.152Z,2.33
2023-01-02T03:07:52.057Z,3.40
2023-01-02T03:10:33.252Z,2.33
2023-01-02T03:13:28.789Z,2.63
2023-01-02T03:16:26.904Z,2.13
2023-01-02T03:19:05.429Z,1.87
2023-01-02T03:21:57.748Z,2.53
2023-01-02T03:24:29.276Z,2.25
2023-01-02T03:27:02.832Z,2.17
2023-01-02T03:29:41.286Z,2.17
2023-01-02T03:32:15.313Z,2.57
2023-01-02T03:34:48.355Z,2.17
2023-01-02T03:37:20.939Z,2.30
2023-01-02T03:39:53.773Z,2.37
2023-01-02T03:42:29.146Z,2.23
2023-01-02T03:45:14.044Z,1.57
2023-01-02T03:47:58.925Z,2.30
2023-01-02T03:50:35.961Z,2.20
2023-01-02T03:53:06.225Z,2.00
2023-01-02T03:55:38.371Z,2.33
2023-01-02T03:58:22.709Z,2.13
2023-01-02T04:00:55.581Z,2.37
2023-01-02T04:03:31.494Z,2.17
2023-01-02T04:06:04.331Z,2.63
2023-01-02T04:08:37.449Z,2.27
2023-01-02T04:11:09.362Z,2.70
2023-01-02T04:13:47.842Z,2.15
2023-01-02T04:16:21.421Z,2.20
2023-01-02T04:18:57.012Z,2.20
2023-01-02T04:21:29.966Z,2.33
2023-01-02T04:24:03.094Z,2.15
2023-01-02T04:26:50.682Z,2.35
2023-01-02T04:29:20.132Z,2.43
2023-01-02T04:32:15.349Z,2.50
2023-01-02T04:34:47.320Z,1.70
2023-01-02T04:37:37.621Z,1.97
2023-01-02T04:40:16.047Z,1.67
2023-01-02T04:42:47.104Z,2.20
2023-01-02T04:45:18.167Z,2.53
2023-01-02T04:47:49.784Z,2.00
2023-01-02T04:50:19.421Z,1.90
2023-01-02T04:52:49.129Z,1.80
2023-01-02T04:55:18.642Z,2.27
2023-01-02T04:57:48.363Z,2.27
2023-01-02T05:00:18.216Z,1.93
2023-01-02T05:02:48.009Z,2.30
2023-01-02T05:05:17.661Z,1.87
2023-01-02T05:07:47.529Z,2.00
2023-01-02T05:10:17.048Z,2.17
2023-01-02T05:12:46.795Z,1.80
2023-01-02T05:15:16.645Z,1.85
2023-01-02T05:17:46.464Z,1.90
2023-01-02T05:20:16.315Z,1.57
2023-01-02T05:23:04.269Z,2.10
2023-01-02T05:25:35.992Z,2.30
2023-01-02T05:28:06.863Z,2.12
2023-01-02T05:30:41.268Z,2.07
2023-01-02T05:33:11.000Z,1.90
2023-01-02T05:35:40.720Z,1.80
2023-01-02T05:38:10.422Z,2.10
2023-01-02T05:40:40.190Z,2.03
2023-01-02T05:43:09.633Z,2.13
2023-01-02T05:45:39.410Z,2.73
2023-01-02T05:48:08.853Z,1.97
2023-01-02T05:50:38.649Z,1.80
2023-01-02T05:53:10.142Z,1.60
2023-01-02T05:55:39.909Z,2.20
2023-01-02T05:58:09.571Z,2.20
2023-01-02T06:00:39.449Z,2.20
2023-01-02T06:03:09.198Z,1.97
2023-01-02T06:05:40.481Z,2.05
2023-01-02T06:08:10.220Z,1.63
2023-01-02T06:10:40.434Z,1.75
2023-01-02T06:13:10.218Z,2.00
2023-01-02T06:15:40.007Z,2.60
2023-01-02T06:18:09.535Z,1.83
2023-01-02T06:20:39.369Z,2.10
2023-01-02T06:23:08.821Z,1.83
2023-01-02T06:25:38.587Z,2.07
2023-01-02T06:28:08.323Z,1.90
2023-01-02T06:30:38.398Z,1.80
2023-01-02T06:33:08.176Z,1.20
2023-01-02T06:35:37.929Z,2.37
2023-01-02T06:38:08.279Z,1.60
2023-01-02T06:40:37.967Z,1.30
2023-01-02T06:43:07.676Z,1.03
2023-01-02T06:45:37.496Z,1.17
2023-01-02T06:48:07.145Z,1.23
2023-01-02T06:50:37.761Z,0.80
2023-01-02T06:53:07.253Z,1.30
2023-01-02T06:55:37.264Z,0.93
2023-01-02T06:58:12.245Z,1.33
2023-01-02T07:00:38.928Z,0.90
2023-01-02T07:03:08.632Z,1.40
2023-01-02T07:05:38.460Z,1.00
2023-01-02T07:08:08.476Z,1.17
2023-01-02T07:10:38.250Z,0.97
2023-01-02T07:13:07.748Z,1.07
2023-01-02T07:15:37.509Z,1.00
2023-01-02T07:18:07.123Z,1.20
2023-01-02T07:20:36.887Z,1.00
2023-01-02T07:23:06.780Z,1.10
2023-01-02T07:25:42.395Z,1.37
2023-01-02T07:28:08.103Z,1.57
2023-01-02T07:30:37.758Z,1.40
2023-01-02T07:33:07.369Z,0.80
2023-01-02T07:35:37.114Z,0.93
2023-01-02T07:38:06.969Z,1.23
2023-01-02T07:40:36.785Z,0.93
2023-01-02T07:43:06.431Z,1.40
2023-01-02T07:45:36.386Z,1.23
2023-01-02T07:48:06.910Z,1.22
2023-01-02T07:50:36.728Z,1.23
2023-01-02T07:53:06.820Z,1.80
2023-01-02T07:55:36.740Z,1.43
2023-01-02T07:58:06.777Z,1.20
2023-01-02T08:00:36.729Z,1.23
2023-01-02T08:03:07.763Z,1.47
2023-01-02T08:05:37.517Z,1.70
2023-01-02T08:08:07.828Z,1.20
2023-01-02T08:10:40.759Z,1.67
2023-01-02T08:13:11.561Z,1.27
2023-01-02T08:15:41.294Z,1.50
2023-01-02T08:18:11.031Z,1.13
2023-01-02T08:20:40.895Z,0.90
2023-01-02T08:23:10.601Z,1.20
2023-01-02T08:25:40.323Z,1.47
2023-01-02T08:28:10.108Z,1.60
2023-01-02T08:30:41.887Z,1.00
2023-01-02T08:33:11.440Z,1.70
2023-01-02T08:35:41.190Z,1.60
2023-01-02T08:38:10.693Z,1.43
2023-01-02T08:40:40.896Z,1.20
2023-01-02T08:43:10.552Z,2.10
2023-01-02T08:45:40.438Z,1.57
2023-01-02T08:48:21.152Z,1.27
2023-01-02T08:50:44.556Z,1.53
2023-01-02T08:53:14.115Z,1.47
2023-01-02T08:55:43.847Z,1.97
2023-01-02T08:58:13.314Z,1.90
2023-01-02T09:00:43.084Z,1.27
2023-01-02T09:03:12.679Z,1.77
2023-01-02T09:05:42.546Z,1.77
2023-01-02T09:08:12.115Z,1.23
2023-01-02T09:10:42.755Z,2.08
2023-01-02T09:13:12.460Z,1.33
2023-01-02T09:15:46.805Z,1.60
2023-01-02T09:18:16.829Z,1.75
2023-01-02T09:20:47.532Z,1.67
2023-01-02T09:23:17.085Z,1.67
2023-01-02T09:25:46.883Z,1.60
2023-01-02T09:28:16.892Z,1.87
2023-01-02T09:30:46.700Z,1.93
2023-01-02T09:33:16.854Z,1.60
2023-01-02T09:35:46.406Z,0.73
2023-01-02T09:38:17.975Z,1.20
2023-01-02T09:40:50.757Z,1.23
2023-01-02T09:43:32.125Z,1.60
2023-01-02T09:46:05.401Z,1.83
2023-01-02T09:48:37.513Z,1.13
2023-01-02T09:51:08.083Z,1.00
2023-01-02T09:53:37.877Z,1.60
2023-01-02T09:56:22.257Z,1.60
2023-01-02T09:58:53.464Z,1.17
2023-01-02T10:01:34.884Z,1.40
2023-01-02T10:04:17.447Z,1.73
2023-01-02T10:06:50.303Z,1.40
2023-01-02T10:09:36.905Z,1.87
2023-01-02T10:12:16.051Z,1.33
2023-01-02T10:14:54.680Z,1.73
2023-01-02T10:17:26.867Z,1.47
2023-01-02T10:20:08.171Z,1.27
2023-01-02T10:22:43.951Z,1.70
2023-01-02T10:25:16.918Z,1.10
2023-01-02T10:27:52.712Z,1.23
2023-01-02T10:30:28.604Z,1.20
2023-01-02T10:33:07.638Z,1.07
2023-01-02T10:35:40.459Z,1.07
2023-01-02T10:38:19.070Z,1.10
2023-01-02T10:40:51.841Z,1.20
2023-01-02T10:43:21.568Z,1.20
2023-01-02T10:45:51.632Z,1.12
2023-01-02T10:48:23.585Z,0.87
2023-01-02T10:50:56.400Z,1.10
2023-01-02T10:53:34.717Z,1.00
2023-01-02T10:56:07.895Z,1.20
2023-01-02T10:58:40.730Z,1.00
2023-01-02T11:01:19.284Z,0.70
2023-01-02T11:03:51.765Z,0.80
2023-01-02T11:06:29.011Z,0.87
2023-01-02T11:09:03.595Z,1.20
2023-01-02T11:11:33.679Z,0.85
2023-01-02T11:14:08.664Z,1.00
2023-01-02T11:16:42.072Z,1.07
2023-01-02T11:19:27.413Z,1.25
2023-01-02T11:21:53.550Z,1.10
2023-01-02T11:24:25.732Z,0.90
2023-01-02T11:26:56.829Z,1.10
2023-01-02T11:29:32.316Z,1.12
2023-01-02T11:32:04.838Z,1.00
2023-01-02T11:34:41.804Z,1.43
2023-01-02T11:37:17.147Z,1.20
2023-01-02T11:40:12.385Z,1.27
2023-01-02T11:43:02.689Z,1.03
2023-01-02T11:45:33.815Z,1.33
2023-01-02T11:48:15.005Z,1.22
2023-01-02T11:50:45.636Z,1.53
2023-01-02T11:53:18.181Z,1.27
2023-01-02T11:56:03.638Z,1.40
2023-01-02T11:58:57.472Z,1.67
2023-01-02T12:01:39.346Z,1.87
2023-01-02T12:04:09.383Z,1.73
2023-01-02T12:06:57.112Z,1.50
2023-01-02T12:09:32.622Z,1.20
2023-01-02T12:12:11.563Z,2.02
2023-01-02T12:14:56.255Z,2.20
2023-01-02T12:17:29.053Z,1.60
2023-01-02T12:20:07.953Z,1.63
2023-01-02T12:23:00.001Z,1.03
2023-01-02T12:25:47.791Z,1.40
2023-01-02T12:28:37.211Z,1.40
2023-01-02T12:31:32.254Z,1.40
2023-01-02T12:34:33.903Z,1.17
2023-01-02T12:39:50.165Z,1.72
2023-01-02T12:42:28.061Z,1.60
2023-01-02T12:44:59.760Z,1.65
2023-01-02T12:48:00.965Z,1.37
2023-01-02T12:50:49.136Z,1.87
2023-01-02T12:54:19.735Z,1.97
2023-01-02T12:56:46.678Z,1.30
2023-01-02T12:59:25.287Z,1.57
2023-01-02T13:01:58.692Z,2.10
2023-01-02T13:04:31.668Z,1.33
2023-01-02T13:07:12.972Z,1.60
2023-01-02T13:09:44.962Z,1.37
2023-01-02T13:12:22.933Z,1.43
2023-01-02T13:14:59.063Z,1.27
2023-01-02T13:17:46.791Z,1.80
2023-01-02T13:20:22.454Z,1.45
2023-01-02T13:22:56.147Z,1.43
2023-01-02T13:25:26.630Z,1.37
2023-01-02T13:27:58.755Z,2.03
2023-01-02T13:30:38.486Z,1.77
2023-01-02T13:33:23.018Z,2.07
2023-01-02T13:35:53.213Z,2.10
2023-01-02T13:38:25.312Z,2.33
2023-01-02T13:40:57.811Z,2.33
2023-01-02T13:43:30.710Z,1.90
2023-01-02T13:46:02.070Z,2.67
2023-01-02T13:48:37.834Z,1.67
2023-01-02T13:51:10.360Z,2.20
2023-01-02T13:53:45.950Z,2.67
2023-01-02T13:56:17.598Z,2.63
2023-01-02T13:59:00.062Z,1.77
2023-01-02T14:01:42.030Z,2.40
2023-01-02T14:04:16.202Z,3.13
2023-01-02T14:06:53.565Z,2.90
2023-01-02T14:09:21.143Z,2.30
2023-01-02T14:11:59.710Z,1.83
2023-01-02T14:14:47.874Z,2.27
2023-01-02T14:17:35.244Z,1.40
2023-01-02T14:20:25.545Z,2.15
2023-01-02T14:22:58.698Z,1.92
2023-01-02T14:25:29.803Z,1.95
2023-01-02T14:28:05.568Z,2.10
2023-01-02T14:30:40.765Z,2.17
2023-01-02T14:33:15.388Z,2.22
2023-01-02T14:35:51.193Z,1.95
2023-01-02T14:38:24.044Z,2.07
2023-01-02T14:40:56.292Z,1.83
2023-01-02T14:43:38.510Z,1.98
2023-01-02T14:46:23.423Z,2.00
2023-01-02T14:49:25.543Z,2.70
2023-01-02T14:51:42.809Z,2.17
2023-01-02T14:54:18.401Z,1.70
2023-01-02T14:56:51.199Z,2.27
2023-01-02T14:59:29.717Z,1.90
2023-01-02T15:02:02.647Z,2.10
2023-01-02T15:04:41.397Z,1.93
2023-01-02T15:07:19.888Z,1.83
2023-01-02T15:09:52.707Z,1.93
2023-01-02T15:12:45.873Z,2.17
2023-01-02T15:15:20.024Z,2.52
2023-01-02T15:17:51.865Z,1.93
2023-01-02T15:20:24.642Z,2.30
2023-01-02T15:22:57.051Z,2.55
2023-01-02T15:25:39.355Z,2.07
2023-01-02T15:28:27.012Z,2.43
2023-01-02T15:31:02.831Z,2.63
2023-01-02T15:33:34.632Z,2.40
2023-01-02T15:36:10.427Z,2.37
2023-01-02T15:38:40.598Z,1.87
2023-01-02T15:41:21.128Z,2.17
2023-01-02T15:44:10.579Z,2.00
2023-01-02T15:46:40.758Z,3.00
2023-01-02T15:49:13.206Z,2.93
2023-01-02T15:51:43.046Z,4.83
2023-01-02T15:54:14.683Z,5.47
2023-01-02T15:56:44.443Z,3.80
2023-01-02T15:59:29.281Z,4.47
2023-01-02T16:01:59.172Z,4.47
2023-01-02T16:04:32.105Z,3.90
2023-01-02T16:07:19.735Z,3.60
2023-01-02T16:09:52.568Z,2.87
2023-01-02T16:12:24.072Z,3.20
2023-01-02T16:14:56.731Z,2.65
2023-01-02T16:17:38.647Z,3.15
2023-01-02T16:20:17.584Z,2.90
2023-01-02T16:23:08.341Z,2.40
2023-01-02T16:25:40.892Z,3.40
2023-01-02T16:28:34.811Z,3.10
2023-01-02T16:31:09.018Z,3.27
2023-01-02T16:33:40.180Z,3.77
2023-01-02T16:36:15.678Z,3.22
2023-01-02T16:38:58.666Z,3.27
2023-01-02T16:41:36.132Z,3.40
2023-01-02T16:44:15.533Z,3.37
2023-01-02T16:46:49.325Z,4.53
2023-01-02T16:49:24.275Z,5.33
2023-01-02T16:54:58.600Z,4.67
2023-01-02T16:57:30.948Z,4.57
2023-01-02T17:00:01.006Z,3.87
2023-01-02T17:02:30.934Z,3.60
2023-01-02T17:05:02.939Z,4.03
2023-01-02T17:07:32.732Z,4.27
2023-01-02T17:10:04.642Z,5.00
2023-01-02T17:12:39.720Z,4.50
2023-01-02T17:15:08.656Z,4.45
2023-01-02T17:17:39.424Z,3.85
2023-01-02T17:22:39.818Z,4.42
2023-01-02T17:25:12.024Z,3.37
2023-01-02T17:27:43.155Z,3.20
2023-01-02T17:30:14.746Z,4.50
2023-01-02T17:32:47.083Z,3.70
2023-01-02T17:35:17.597Z,3.67
2023-01-02T17:37:51.901Z,3.15
2023-01-02T17:40:21.449Z,4.10
2023-01-02T17:42:51.264Z,4.07
2023-01-02T17:45:21.300Z,3.80
2023-01-02T17:48:11.945Z,3.53
2023-01-02T17:50:22.700Z,3.57
2023-01-02T17:52:52.554Z,3.70
2023-01-02T17:55:22.358Z,3.50
2023-01-02T17:57:52.113Z,3.80
2023-01-02T18:00:23.818Z,3.47
2023-01-02T18:02:54.352Z,4.47
2023-01-02T18:05:24.546Z,3.87
2023-01-02T18:07:54.316Z,3.80
2023-01-02T18:10:32.676Z,4.12
2023-01-02T18:12:56.714Z,3.87
2023-01-02T18:15:26.600Z,3.13
2023-01-02T18:17:56.915Z,3.40
2023-01-02T18:20:26.760Z,3.70
2023-01-02T18:22:58.018Z,3.63
2023-01-02T18:25:30.950Z,4.17
2023-01-02T18:28:24.739Z,3.50
2023-01-02T18:31:00.824Z,3.85
2023-01-02T18:33:33.324Z,3.42
2023-01-02T18:36:05.603Z,3.80
2023-01-02T18:38:39.626Z,4.15
2023-01-02T18:41:21.675Z,3.07
2023-01-02T18:43:54.968Z,3.47
2023-01-02T18:47:03.054Z,3.77
2023-01-02T18:49:25.462Z,3.60
2023-01-02T18:52:14.085Z,4.27
2023-01-02T18:54:46.580Z,3.73
2023-01-02T18:57:21.992Z,3.83
2023-01-02T18:59:53.317Z,3.63
2023-01-02T19:02:44.175Z,4.35
2023-01-02T19:05:20.126Z,3.83
2023-01-02T19:07:50.234Z,3.47
2023-01-02T19:10:37.280Z,3.58
2023-01-02T19:13:18.714Z,4.23
2023-01-02T19:16:14.763Z,4.20
2023-01-02T19:18:49.377Z,4.00
2023-01-02T19:21:33.374Z,3.80
2023-01-02T19:24:20.875Z,4.10
2023-01-02T19:26:53.199Z,3.87
2023-01-02T19:29:33.670Z,3.73
2023-01-02T19:32:16.431Z,3.55
2023-01-02T19:34:50.356Z,4.00
2023-01-02T19:37:25.936Z,3.62
2023-01-02T19:39:59.281Z,3.37
2023-01-02T19:42:33.120Z,3.77
2023-01-02T19:45:11.865Z,3.87
2023-01-02T19:47:42.507Z,3.50
2023-01-02T19:50:18.099Z,3.80
2023-01-02T19:52:48.017Z,3.80
2023-01-02T19:55:18.409Z,3.90
2023-01-02T19:57:50.335Z,4.20
2023-01-02T20:00:20.489Z,3.40
2023-01-02T20:02:56.806Z,4.05
2023-01-02T20:05:31.962Z,3.70
2023-01-02T20:08:02.393Z,3.43
2023-01-02T20:10:32.372Z,2.83
2023-01-02T20:13:05.728Z,3.73
2023-01-02T20:15:47.046Z,3.93
2023-01-02T20:18:22.636Z,4.03
2023-01-02T20:20:53.792Z,3.10
2023-01-02T20:23:29.657Z,3.37
2023-01-02T20:26:26.313Z,3.57
2023-01-02T20:29:13.547Z,2.90
2023-01-02T20:31:36.162Z,3.80
2023-01-02T20:34:07.215Z,3.45
2023-01-02T20:36:37.271Z,3.40
2023-01-02T20:39:10.149Z,2.90
2023-01-02T20:41:41.301Z,3.27
2023-01-02T20:44:13.641Z,4.50
2023-01-02T20:46:43.987Z,3.70
2023-01-02T20:49:13.742Z,3.63
2023-01-02T20:51:43.747Z,3.83
2023-01-02T20:54:16.297Z,3.60
2023-01-02T20:56:46.172Z,3.93
2023-01-02T20:59:15.843Z,4.07
2023-01-02T21:01:46.131Z,4.00
2023-01-02T21:04:20.635Z,4.20
2023-01-02T21:06:47.280Z,3.83
2023-01-02T21:09:17.046Z,3.40
2023-01-02T21:11:46.915Z,2.97
2023-01-02T21:14:16.865Z,3.83
2023-01-02T21:16:46.763Z,3.83
2023-01-02T21:19:16.510Z,3.83
2023-01-02T21:21:46.507Z,3.67
2023-01-02T21:24:16.284Z,3.77
2023-01-02T21:26:46.092Z,3.17
2023-01-02T21:29:15.659Z,3.53
2023-01-02T21:31:48.373Z,4.20
2023-01-02T21:34:18.061Z,3.13
2023-01-02T21:36:47.857Z,2.77
2023-01-02T21:39:17.736Z,3.33
2023-01-02T21:42:05.612Z,3.47
2023-01-02T21:44:35.459Z,3.53
2023-01-02T21:47:06.526Z,2.60
2023-01-02T21:49:36.516Z,2.97
2023-01-02T21:52:07.188Z,3.08
2023-01-02T21:54:37.027Z,2.70
2023-01-02T21:57:06.810Z,3.03
2023-01-02T21:59:36.767Z,2.63
2023-01-02T22:02:06.842Z,3.53
2023-01-02T22:04:37.289Z,3.90
2023-01-02T22:09:38.785Z,2.67
2023-01-02T22:12:08.702Z,2.77
2023-01-02T22:14:40.316Z,3.37
2023-01-02T22:17:11.376Z,3.35
2023-01-02T22:19:40.985Z,3.05
2023-01-02T22:22:10.816Z,3.50
2023-01-02T22:24:44.478Z,3.10
2023-01-02T22:27:14.691Z,2.73
2023-01-02T22:32:18.583Z,3.65
2023-01-02T22:34:48.187Z,3.30
2023-01-02T22:37:22.315Z,3.20
2023-01-02T22:39:49.806Z,3.43
2023-01-02T22:45:14.071Z,3.07
2023-01-02T22:47:44.137Z,3.07
2023-01-02T22:50:22.631Z,2.60
2023-01-02T22:52:52.803Z,2.77
2023-01-02T22:55:24.166Z,3.63
2023-01-02T22:57:53.863Z,2.40
2023-01-02T23:00:23.888Z,3.50
2023-01-02T23:02:53.506Z,2.70
2023-01-02T23:05:23.273Z,3.17
2023-01-02T23:07:53.215Z,2.97
2023-01-02T23:10:22.998Z,3.17
2023-01-02T23:12:52.851Z,3.50
2023-01-02T23:15:22.641Z,3.00
2023-01-02T23:18:10.155Z,3.15
2023-01-02T23:20:40.191Z,3.47
2023-01-02T23:23:10.125Z,3.17
2023-01-02T23:25:43.177Z,3.20
2023-01-02T23:28:31.892Z,2.63
2023-01-02T23:30:44.265Z,3.10
2023-01-02T23:33:14.083Z,3.62
2023-01-02T23:35:44.152Z,3.08
2023-01-02T23:38:13.983Z,2.92
2023-01-02T23:40:43.862Z,3.10
2023-01-02T23:43:13.715Z,3.70
2023-01-02T23:45:44.581Z,3.70
2023-01-02T23:48:14.244Z,2.93
2023-01-02T23:50:46.293Z,3.63
2023-01-02T23:53:15.770Z,3.60
2023-01-02T23:55:45.548Z,3.60
2023-01-02T23:58:15.113Z,3.80
